sensor_id;sensor_type;location;lat;lon;timestamp;P1;durP1;ratioP1;P2;durP2;ratioP2
20870;SDS011;10595;51.218;3.452;2023-04-25T00:01:05;21.63;;;4.97;;
20870;SDS011;10595;51.218;3.452;2023-04-25T00:03:33;16.47;;;4.57;;
20870;SDS011;10595;51.218;3.452;2023-04-25T00:06:00;15.27;;;4.30;;
20870;SDS011;10595;51.218;3.452;2023-04-25T00:08:29;17.23;;;4.20;;
20870;SDS011;10595;51.218;3.452;2023-04-25T00:10:56;15.53;;;4.30;;
20870;SDS011;10595;51.218;3.452;2023-04-25T00:13:22;16.83;;;4.77;;
20870;SDS011;10595;51.218;3.452;2023-04-25T00:15:48;15.90;;;4.67;;
20870;SDS011;10595;51.218;3.452;2023-04-25T00:18:15;19.47;;;4.43;;
20870;SDS011;10595;51.218;3.452;2023-04-25T00:20:42;11.40;;;4.27;;
20870;SDS011;10595;51.218;3.452;2023-04-25T00:23:11;18.03;;;4.60;;
20870;SDS011;10595;51.218;3.452;2023-04-25T00:25:41;26.27;;;5.23;;
20870;SDS011;10595;51.218;3.452;2023-04-25T00:28:07;17.63;;;4.17;;
20870;SDS011;10595;51.218;3.452;2023-04-25T00:30:33;18.07;;;4.30;;
20870;SDS011;10595;51.218;3.452;2023-04-25T00:32:59;19.23;;;5.13;;
20870;SDS011;10595;51.218;3.452;2023-04-25T00:35:25;25.67;;;6.60;;
20870;SDS011;10595;51.218;3.452;2023-04-25T00:37:51;18.03;;;4.27;;
20870;SDS011;10595;51.218;3.452;2023-04-25T00:40:17;17.37;;;5.20;;
20870;SDS011;10595;51.218;3.452;2023-04-25T00:42:43;20.60;;;4.70;;
20870;SDS011;10595;51.218;3.452;2023-04-25T00:45:09;18.00;;;4.60;;
20870;SDS011;10595;51.218;3.452;2023-04-25T00:47:39;23.27;;;5.87;;
20870;SDS011;10595;51.218;3.452;2023-04-25T00:50:05;13.77;;;4.00;;
20870;SDS011;10595;51.218;3.452;2023-04-25T00:52:32;19.47;;;4.37;;
20870;SDS011;10595;51.218;3.452;2023-04-25T00:54:58;18.10;;;4.30;;
20870;SDS011;10595;51.218;3.452;2023-04-25T00:57:25;19.20;;;5.10;;
20870;SDS011;10595;51.218;3.452;2023-04-25T00:59:51;15.43;;;4.43;;
20870;SDS011;10595;51.218;3.452;2023-04-25T01:02:18;18.70;;;4.27;;
20870;SDS011;10595;51.218;3.452;2023-04-25T01:04:45;16.57;;;4.70;;
20870;SDS011;10595;51.218;3.452;2023-04-25T01:07:11;18.20;;;4.47;;
20870;SDS011;10595;51.218;3.452;2023-04-25T01:09:38;14.60;;;3.50;;
20870;SDS011;10595;51.218;3.452;2023-04-25T01:12:04;21.53;;;4.47;;
20870;SDS011;10595;51.218;3.452;2023-04-25T01:14:30;13.30;;;3.57;;
20870;SDS011;10595;51.218;3.452;2023-04-25T01:16:56;16.73;;;3.90;;
20870;SDS011;10595;51.218;3.452;2023-04-25T01:19:22;16.00;;;3.97;;
20870;SDS011;10595;51.218;3.452;2023-04-25T01:21:49;13.53;;;4.23;;
20870;SDS011;10595;51.218;3.452;2023-04-25T01:24:15;15.33;;;4.13;;
20870;SDS011;10595;51.218;3.452;2023-04-25T01:26:42;25.70;;;4.93;;
20870;SDS011;10595;51.218;3.452;2023-04-25T01:29:14;22.37;;;5.17;;
20870;SDS011;10595;51.218;3.452;2023-04-25T01:31:40;20.40;;;4.77;;
20870;SDS011;10595;51.218;3.452;2023-04-25T01:34:06;20.33;;;4.60;;
20870;SDS011;10595;51.218;3.452;2023-04-25T01:36:32;18.40;;;4.40;;
20870;SDS011;10595;51.218;3.452;2023-04-25T01:39:00;22.60;;;5.03;;
20870;SDS011;10595;51.218;3.452;2023-04-25T01:41:26;19.77;;;4.53;;
20870;SDS011;10595;51.218;3.452;2023-04-25T01:43:52;24.33;;;5.37;;
20870;SDS011;10595;51.218;3.452;2023-04-25T01:46:18;27.03;;;5.93;;
20870;SDS011;10595;51.218;3.452;2023-04-25T01:48:45;24.70;;;5.03;;
20870;SDS011;10595;51.218;3.452;2023-04-25T01:51:11;26.13;;;5.17;;
20870;SDS011;10595;51.218;3.452;2023-04-25T01:53:37;23.93;;;4.60;;
20870;SDS011;10595;51.218;3.452;2023-04-25T01:56:04;19.70;;;5.00;;
20870;SDS011;10595;51.218;3.452;2023-04-25T01:58:30;22.43;;;5.20;;
20870;SDS011;10595;51.218;3.452;2023-04-25T02:00:56;23.87;;;4.63;;
20870;SDS011;10595;51.218;3.452;2023-04-25T02:03:22;22.77;;;4.37;;
20870;SDS011;10595;51.218;3.452;2023-04-25T02:05:48;17.13;;;4.37;;
20870;SDS011;10595;51.218;3.452;2023-04-25T02:08:16;22.20;;;4.37;;
20870;SDS011;10595;51.218;3.452;2023-04-25T02:10:43;20.93;;;4.27;;
20870;SDS011;10595;51.218;3.452;2023-04-25T02:13:09;15.30;;;4.53;;
20870;SDS011;10595;51.218;3.452;2023-04-25T02:15:35;20.97;;;4.87;;
20870;SDS011;10595;51.218;3.452;2023-04-25T02:18:01;17.57;;;4.00;;
20870;SDS011;10595;51.218;3.452;2023-04-25T02:20:28;21.33;;;4.00;;
20870;SDS011;10595;51.218;3.452;2023-04-25T02:22:55;20.40;;;4.13;;
20870;SDS011;10595;51.218;3.452;2023-04-25T02:25:21;23.87;;;4.47;;
20870;SDS011;10595;51.218;3.452;2023-04-25T02:27:47;19.60;;;4.60;;
20870;SDS011;10595;51.218;3.452;2023-04-25T02:30:14;15.27;;;4.17;;
20870;SDS011;10595;51.218;3.452;2023-04-25T02:32:40;11.80;;;3.73;;
20870;SDS011;10595;51.218;3.452;2023-04-25T02:35:06;13.20;;;3.73;;
20870;SDS011;10595;51.218;3.452;2023-04-25T02:37:33;16.20;;;3.77;;
20870;SDS011;10595;51.218;3.452;2023-04-25T02:39:59;13.27;;;3.60;;
20870;SDS011;10595;51.218;3.452;2023-04-25T02:42:26;15.17;;;3.77;;
20870;SDS011;10595;51.218;3.452;2023-04-25T02:44:52;13.47;;;3.73;;
20870;SDS011;10595;51.218;3.452;2023-04-25T02:47:18;13.67;;;4.17;;
20870;SDS011;10595;51.218;3.452;2023-04-25T02:49:44;12.70;;;3.33;;
20870;SDS011;10595;51.218;3.452;2023-04-25T02:52:11;15.80;;;3.57;;
20870;SDS011;10595;51.218;3.452;2023-04-25T02:54:37;18.10;;;4.20;;
20870;SDS011;10595;51.218;3.452;2023-04-25T02:57:03;12.43;;;3.67;;
20870;SDS011;10595;51.218;3.452;2023-04-25T02:59:29;15.40;;;3.90;;
20870;SDS011;10595;51.218;3.452;2023-04-25T03:01:55;19.40;;;4.47;;
20870;SDS011;10595;51.218;3.452;2023-04-25T03:04:21;13.07;;;3.70;;
20870;SDS011;10595;51.218;3.452;2023-04-25T03:06:49;14.77;;;3.50;;
20870;SDS011;10595;51.218;3.452;2023-04-25T03:09:15;14.23;;;3.87;;
20870;SDS011;10595;51.218;3.452;2023-04-25T03:11:41;13.20;;;3.30;;
20870;SDS011;10595;51.218;3.452;2023-04-25T03:14:07;12.73;;;3.60;;
20870;SDS011;10595;51.218;3.452;2023-04-25T03:16:33;13.07;;;3.90;;
20870;SDS011;10595;51.218;3.452;2023-04-25T03:18:59;18.30;;;4.20;;
20870;SDS011;10595;51.218;3.452;2023-04-25T03:21:25;11.00;;;3.60;;
20870;SDS011;10595;51.218;3.452;2023-04-25T03:23:51;17.60;;;3.73;;
20870;SDS011;10595;51.218;3.452;2023-04-25T03:26:17;12.37;;;3.70;;
20870;SDS011;10595;51.218;3.452;2023-04-25T03:28:43;14.10;;;3.70;;
20870;SDS011;10595;51.218;3.452;2023-04-25T03:31:09;12.17;;;3.77;;
20870;SDS011;10595;51.218;3.452;2023-04-25T03:33:35;10.37;;;3.70;;
20870;SDS011;10595;51.218;3.452;2023-04-25T03:36:01;13.73;;;3.80;;
20870;SDS011;10595;51.218;3.452;2023-04-25T03:38:28;18.33;;;4.87;;
20870;SDS011;10595;51.218;3.452;2023-04-25T03:40:54;15.07;;;4.20;;
20870;SDS011;10595;51.218;3.452;2023-04-25T03:43:21;13.93;;;3.63;;
20870;SDS011;10595;51.218;3.452;2023-04-25T03:45:47;21.43;;;4.30;;
20870;SDS011;10595;51.218;3.452;2023-04-25T03:48:13;11.93;;;3.60;;
20870;SDS011;10595;51.218;3.452;2023-04-25T03:50:39;20.30;;;5.30;;
20870;SDS011;10595;51.218;3.452;2023-04-25T03:53:05;14.50;;;4.23;;
20870;SDS011;10595;51.218;3.452;2023-04-25T03:55:31;15.13;;;3.37;;
20870;SDS011;10595;51.218;3.452;2023-04-25T03:57:57;9.93;;;3.23;;
20870;SDS011;10595;51.218;3.452;2023-04-25T04:00:24;10.50;;;3.10;;
20870;SDS011;10595;51.218;3.452;2023-04-25T04:02:50;7.37;;;2.43;;
20870;SDS011;10595;51.218;3.452;2023-04-25T04:05:16;10.60;;;3.40;;
20870;SDS011;10595;51.218;3.452;2023-04-25T04:07:42;14.33;;;3.27;;
20870;SDS011;10595;51.218;3.452;2023-04-25T04:10:09;8.37;;;2.97;;
20870;SDS011;10595;51.218;3.452;2023-04-25T04:12:35;13.87;;;3.50;;
20870;SDS011;10595;51.218;3.452;2023-04-25T04:15:04;10.73;;;3.20;;
20870;SDS011;10595;51.218;3.452;2023-04-25T04:17:31;9.90;;;2.73;;
20870;SDS011;10595;51.218;3.452;2023-04-25T04:19:57;7.87;;;2.63;;
20870;SDS011;10595;51.218;3.452;2023-04-25T04:22:23;15.13;;;3.80;;
20870;SDS011;10595;51.218;3.452;2023-04-25T04:24:49;15.60;;;3.40;;
20870;SDS011;10595;51.218;3.452;2023-04-25T04:27:17;10.93;;;3.13;;
20870;SDS011;10595;51.218;3.452;2023-04-25T04:29:44;13.30;;;3.00;;
20870;SDS011;10595;51.218;3.452;2023-04-25T04:32:10;15.40;;;3.30;;
20870;SDS011;10595;51.218;3.452;2023-04-25T04:34:36;13.00;;;3.70;;
20870;SDS011;10595;51.218;3.452;2023-04-25T04:37:04;10.57;;;2.63;;
20870;SDS011;10595;51.218;3.452;2023-04-25T04:39:31;15.50;;;3.30;;
20870;SDS011;10595;51.218;3.452;2023-04-25T04:41:57;15.30;;;3.33;;
20870;SDS011;10595;51.218;3.452;2023-04-25T04:44:24;12.07;;;3.30;;
20870;SDS011;10595;51.218;3.452;2023-04-25T04:46:50;11.27;;;3.70;;
20870;SDS011;10595;51.218;3.452;2023-04-25T04:49:16;11.43;;;3.53;;
20870;SDS011;10595;51.218;3.452;2023-04-25T04:51:42;9.90;;;3.27;;
20870;SDS011;10595;51.218;3.452;2023-04-25T04:54:12;15.00;;;3.03;;
20870;SDS011;10595;51.218;3.452;2023-04-25T04:56:38;12.23;;;3.03;;
20870;SDS011;10595;51.218;3.452;2023-04-25T04:59:04;16.23;;;3.60;;
20870;SDS011;10595;51.218;3.452;2023-04-25T05:01:30;11.70;;;3.50;;
20870;SDS011;10595;51.218;3.452;2023-04-25T05:03:56;9.50;;;3.30;;
20870;SDS011;10595;51.218;3.452;2023-04-25T05:06:25;14.13;;;3.87;;
20870;SDS011;10595;51.218;3.452;2023-04-25T05:08:51;12.50;;;3.10;;
20870;SDS011;10595;51.218;3.452;2023-04-25T05:11:17;12.23;;;2.83;;
20870;SDS011;10595;51.218;3.452;2023-04-25T05:13:43;10.93;;;2.77;;
20870;SDS011;10595;51.218;3.452;2023-04-25T05:16:10;14.87;;;2.87;;
20870;SDS011;10595;51.218;3.452;2023-04-25T05:18:36;12.97;;;2.70;;
20870;SDS011;10595;51.218;3.452;2023-04-25T05:21:02;13.53;;;2.40;;
20870;SDS011;10595;51.218;3.452;2023-04-25T05:23:28;8.93;;;2.57;;
20870;SDS011;10595;51.218;3.452;2023-04-25T05:25:55;14.57;;;2.17;;
20870;SDS011;10595;51.218;3.452;2023-04-25T05:28:21;10.87;;;2.13;;
20870;SDS011;10595;51.218;3.452;2023-04-25T05:30:47;16.50;;;2.67;;
20870;SDS011;10595;51.218;3.452;2023-04-25T05:33:13;8.97;;;2.60;;
20870;SDS011;10595;51.218;3.452;2023-04-25T05:35:40;14.30;;;2.63;;
20870;SDS011;10595;51.218;3.452;2023-04-25T05:38:06;7.47;;;2.07;;
20870;SDS011;10595;51.218;3.452;2023-04-25T05:40:32;10.97;;;2.60;;
20870;SDS011;10595;51.218;3.452;2023-04-25T05:42:58;9.97;;;2.07;;
20870;SDS011;10595;51.218;3.452;2023-04-25T05:45:24;9.10;;;2.17;;
20870;SDS011;10595;51.218;3.452;2023-04-25T05:47:50;15.57;;;2.70;;
20870;SDS011;10595;51.218;3.452;2023-04-25T05:50:16;12.90;;;2.70;;
20870;SDS011;10595;51.218;3.452;2023-04-25T05:52:42;5.57;;;1.60;;
20870;SDS011;10595;51.218;3.452;2023-04-25T05:55:08;11.83;;;2.37;;
20870;SDS011;10595;51.218;3.452;2023-04-25T05:57:34;8.77;;;2.07;;
20870;SDS011;10595;51.218;3.452;2023-04-25T06:00:00;9.83;;;2.30;;
20870;SDS011;10595;51.218;3.452;2023-04-25T06:02:27;8.60;;;1.73;;
20870;SDS011;10595;51.218;3.452;2023-04-25T06:04:53;12.30;;;2.07;;
20870;SDS011;10595;51.218;3.452;2023-04-25T06:07:19;10.00;;;2.00;;
20870;SDS011;10595;51.218;3.452;2023-04-25T06:09:45;7.77;;;1.70;;
20870;SDS011;10595;51.218;3.452;2023-04-25T06:12:11;8.53;;;2.20;;
20870;SDS011;10595;51.218;3.452;2023-04-25T06:14:37;9.07;;;1.90;;
20870;SDS011;10595;51.218;3.452;2023-04-25T06:17:03;8.30;;;1.93;;
20870;SDS011;10595;51.218;3.452;2023-04-25T06:19:33;5.97;;;1.53;;
20870;SDS011;10595;51.218;3.452;2023-04-25T06:21:59;9.83;;;2.13;;
20870;SDS011;10595;51.218;3.452;2023-04-25T06:24:25;11.90;;;2.00;;
20870;SDS011;10595;51.218;3.452;2023-04-25T06:26:51;8.10;;;2.10;;
20870;SDS011;10595;51.218;3.452;2023-04-25T06:29:18;6.50;;;2.10;;
20870;SDS011;10595;51.218;3.452;2023-04-25T06:31:44;10.07;;;2.27;;
20870;SDS011;10595;51.218;3.452;2023-04-25T06:34:10;9.30;;;2.20;;
20870;SDS011;10595;51.218;3.452;2023-04-25T06:36:36;9.80;;;2.20;;
20870;SDS011;10595;51.218;3.452;2023-04-25T06:39:02;8.67;;;1.63;;
20870;SDS011;10595;51.218;3.452;2023-04-25T06:41:28;12.30;;;1.97;;
20870;SDS011;10595;51.218;3.452;2023-04-25T06:43:54;10.57;;;2.13;;
20870;SDS011;10595;51.218;3.452;2023-04-25T06:46:20;6.70;;;1.90;;
20870;SDS011;10595;51.218;3.452;2023-04-25T06:48:46;8.83;;;1.43;;
20870;SDS011;10595;51.218;3.452;2023-04-25T06:51:12;8.10;;;1.40;;
20870;SDS011;10595;51.218;3.452;2023-04-25T06:53:38;10.73;;;1.80;;
20870;SDS011;10595;51.218;3.452;2023-04-25T06:56:04;12.17;;;1.90;;
20870;SDS011;10595;51.218;3.452;2023-04-25T06:58:30;7.73;;;2.10;;
20870;SDS011;10595;51.218;3.452;2023-04-25T07:00:57;11.63;;;2.10;;
20870;SDS011;10595;51.218;3.452;2023-04-25T07:03:23;7.97;;;1.80;;
20870;SDS011;10595;51.218;3.452;2023-04-25T07:05:49;9.97;;;1.67;;
20870;SDS011;10595;51.218;3.452;2023-04-25T07:08:16;10.23;;;1.90;;
20870;SDS011;10595;51.218;3.452;2023-04-25T07:10:42;11.63;;;2.10;;
20870;SDS011;10595;51.218;3.452;2023-04-25T07:13:08;5.93;;;1.47;;
20870;SDS011;10595;51.218;3.452;2023-04-25T07:15:34;7.67;;;1.50;;
20870;SDS011;10595;51.218;3.452;2023-04-25T07:18:00;10.60;;;1.90;;
20870;SDS011;10595;51.218;3.452;2023-04-25T07:20:26;14.17;;;2.70;;
20870;SDS011;10595;51.218;3.452;2023-04-25T07:22:52;13.30;;;1.87;;
20870;SDS011;10595;51.218;3.452;2023-04-25T07:25:19;9.87;;;1.97;;
20870;SDS011;10595;51.218;3.452;2023-04-25T07:27:45;7.30;;;1.63;;
20870;SDS011;10595;51.218;3.452;2023-04-25T07:30:11;9.63;;;1.30;;
20870;SDS011;10595;51.218;3.452;2023-04-25T07:32:38;6.23;;;1.50;;
20870;SDS011;10595;51.218;3.452;2023-04-25T07:35:04;4.87;;;1.10;;
20870;SDS011;10595;51.218;3.452;2023-04-25T07:37:31;7.20;;;1.40;;
20870;SDS011;10595;51.218;3.452;2023-04-25T07:39:57;8.20;;;1.63;;
20870;SDS011;10595;51.218;3.452;2023-04-25T07:42:23;5.47;;;1.40;;
20870;SDS011;10595;51.218;3.452;2023-04-25T07:44:49;6.33;;;1.77;;
20870;SDS011;10595;51.218;3.452;2023-04-25T07:47:16;8.67;;;1.80;;
20870;SDS011;10595;51.218;3.452;2023-04-25T07:49:44;7.17;;;1.50;;
20870;SDS011;10595;51.218;3.452;2023-04-25T07:52:10;4.63;;;1.33;;
20870;SDS011;10595;51.218;3.452;2023-04-25T07:54:36;7.43;;;1.53;;
20870;SDS011;10595;51.218;3.452;2023-04-25T07:57:02;11.93;;;1.80;;
20870;SDS011;10595;51.218;3.452;2023-04-25T07:59:28;8.23;;;1.73;;
20870;SDS011;10595;51.218;3.452;2023-04-25T08:01:54;7.10;;;1.53;;
20870;SDS011;10595;51.218;3.452;2023-04-25T08:04:22;6.47;;;1.50;;
20870;SDS011;10595;51.218;3.452;2023-04-25T08:06:48;4.53;;;1.40;;
20870;SDS011;10595;51.218;3.452;2023-04-25T08:09:15;5.57;;;1.67;;
20870;SDS011;10595;51.218;3.452;2023-04-25T08:11:41;13.07;;;1.90;;
20870;SDS011;10595;51.218;3.452;2023-04-25T08:14:07;5.00;;;1.40;;
20870;SDS011;10595;51.218;3.452;2023-04-25T08:16:33;5.17;;;1.27;;
20870;SDS011;10595;51.218;3.452;2023-04-25T08:19:00;7.37;;;1.30;;
20870;SDS011;10595;51.218;3.452;2023-04-25T08:21:26;8.33;;;1.57;;
20870;SDS011;10595;51.218;3.452;2023-04-25T08:23:52;3.87;;;1.20;;
20870;SDS011;10595;51.218;3.452;2023-04-25T08:26:18;5.53;;;1.50;;
20870;SDS011;10595;51.218;3.452;2023-04-25T08:28:45;4.00;;;1.20;;
20870;SDS011;10595;51.218;3.452;2023-04-25T08:31:11;9.23;;;1.50;;
20870;SDS011;10595;51.218;3.452;2023-04-25T08:33:37;7.37;;;1.20;;
20870;SDS011;10595;51.218;3.452;2023-04-25T08:36:03;7.60;;;1.60;;
20870;SDS011;10595;51.218;3.452;2023-04-25T08:38:30;9.40;;;1.40;;
20870;SDS011;10595;51.218;3.452;2023-04-25T08:40:56;5.27;;;1.20;;
20870;SDS011;10595;51.218;3.452;2023-04-25T08:43:22;5.13;;;1.40;;
20870;SDS011;10595;51.218;3.452;2023-04-25T08:45:49;4.67;;;1.40;;
20870;SDS011;10595;51.218;3.452;2023-04-25T08:48:16;12.30;;;1.50;;
20870;SDS011;10595;51.218;3.452;2023-04-25T08:50:49;9.00;;;1.50;;
20870;SDS011;10595;51.218;3.452;2023-04-25T08:53:16;6.77;;;1.70;;
20870;SDS011;10595;51.218;3.452;2023-04-25T08:55:45;5.33;;;1.30;;
20870;SDS011;10595;51.218;3.452;2023-04-25T08:58:12;3.50;;;1.00;;
20870;SDS011;10595;51.218;3.452;2023-04-25T09:00:39;4.13;;;1.00;;
20870;SDS011;10595;51.218;3.452;2023-04-25T09:03:05;2.67;;;1.00;;
20870;SDS011;10595;51.218;3.452;2023-04-25T09:05:32;3.80;;;0.80;;
20870;SDS011;10595;51.218;3.452;2023-04-25T09:07:59;3.27;;;1.10;;
20870;SDS011;10595;51.218;3.452;2023-04-25T09:10:26;4.90;;;1.20;;
20870;SDS011;10595;51.218;3.452;2023-04-25T09:13:01;8.27;;;1.40;;
20870;SDS011;10595;51.218;3.452;2023-04-25T09:15:28;5.37;;;1.17;;
20870;SDS011;10595;51.218;3.452;2023-04-25T09:17:58;6.80;;;1.00;;
20870;SDS011;10595;51.218;3.452;2023-04-25T09:20:27;6.20;;;1.17;;
20870;SDS011;10595;51.218;3.452;2023-04-25T09:23:04;5.27;;;1.07;;
20870;SDS011;10595;51.218;3.452;2023-04-25T09:25:34;4.40;;;1.53;;
20870;SDS011;10595;51.218;3.452;2023-04-25T09:28:04;4.87;;;1.30;;
20870;SDS011;10595;51.218;3.452;2023-04-25T09:30:32;5.07;;;1.33;;
20870;SDS011;10595;51.218;3.452;2023-04-25T09:33:04;5.77;;;1.50;;
20870;SDS011;10595;51.218;3.452;2023-04-25T09:35:35;6.47;;;1.40;;
20870;SDS011;10595;51.218;3.452;2023-04-25T09:38:06;3.53;;;1.30;;
20870;SDS011;10595;51.218;3.452;2023-04-25T09:40:32;6.03;;;1.20;;
20870;SDS011;10595;51.218;3.452;2023-04-25T09:42:58;6.90;;;1.23;;
20870;SDS011;10595;51.218;3.452;2023-04-25T09:45:25;5.00;;;1.50;;
20870;SDS011;10595;51.218;3.452;2023-04-25T09:47:55;9.43;;;1.87;;
20870;SDS011;10595;51.218;3.452;2023-04-25T09:50:22;5.40;;;1.53;;
20870;SDS011;10595;51.218;3.452;2023-04-25T09:53:03;8.50;;;1.70;;
20870;SDS011;10595;51.218;3.452;2023-04-25T09:55:31;4.83;;;1.50;;
20870;SDS011;10595;51.218;3.452;2023-04-25T09:57:57;8.33;;;1.60;;
20870;SDS011;10595;51.218;3.452;2023-04-25T10:00:27;4.20;;;1.50;;
20870;SDS011;10595;51.218;3.452;2023-04-25T10:02:53;7.90;;;1.60;;
20870;SDS011;10595;51.218;3.452;2023-04-25T10:05:20;8.60;;;1.50;;
20870;SDS011;10595;51.218;3.452;2023-04-25T10:07:47;8.40;;;1.70;;
20870;SDS011;10595;51.218;3.452;2023-04-25T10:10:13;6.97;;;1.80;;
20870;SDS011;10595;51.218;3.452;2023-04-25T10:12:39;6.10;;;1.60;;
20870;SDS011;10595;51.218;3.452;2023-04-25T10:15:07;6.53;;;1.50;;
20870;SDS011;10595;51.218;3.452;2023-04-25T10:17:34;7.63;;;1.70;;
20870;SDS011;10595;51.218;3.452;2023-04-25T10:20:03;6.87;;;1.83;;
20870;SDS011;10595;51.218;3.452;2023-04-25T10:22:34;11.17;;;2.13;;
20870;SDS011;10595;51.218;3.452;2023-04-25T10:25:01;6.07;;;1.50;;
20870;SDS011;10595;51.218;3.452;2023-04-25T10:27:31;7.20;;;1.67;;
20870;SDS011;10595;51.218;3.452;2023-04-25T10:30:04;6.63;;;1.23;;
20870;SDS011;10595;51.218;3.452;2023-04-25T10:32:31;6.93;;;1.30;;
20870;SDS011;10595;51.218;3.452;2023-04-25T10:35:04;5.53;;;1.67;;
20870;SDS011;10595;51.218;3.452;2023-04-25T10:37:35;5.80;;;1.00;;
20870;SDS011;10595;51.218;3.452;2023-04-25T10:40:07;10.17;;;1.33;;
20870;SDS011;10595;51.218;3.452;2023-04-25T10:42:34;6.90;;;1.47;;
20870;SDS011;10595;51.218;3.452;2023-04-25T10:45:09;6.50;;;1.00;;
20870;SDS011;10595;51.218;3.452;2023-04-25T10:47:35;5.63;;;0.90;;
20870;SDS011;10595;51.218;3.452;2023-04-25T10:50:05;11.53;;;1.70;;
20870;SDS011;10595;51.218;3.452;2023-04-25T10:52:32;6.37;;;1.10;;
20870;SDS011;10595;51.218;3.452;2023-04-25T10:54:58;3.43;;;0.83;;
20870;SDS011;10595;51.218;3.452;2023-04-25T10:57:41;8.87;;;1.50;;
20870;SDS011;10595;51.218;3.452;2023-04-25T11:00:12;6.30;;;1.30;;
20870;SDS011;10595;51.218;3.452;2023-04-25T11:02:44;10.20;;;1.43;;
20870;SDS011;10595;51.218;3.452;2023-04-25T11:07:54;6.83;;;1.30;;
20870;SDS011;10595;51.218;3.452;2023-04-25T11:10:28;4.97;;;1.43;;
20870;SDS011;10595;51.218;3.452;2023-04-25T11:12:54;8.43;;;1.30;;
20870;SDS011;10595;51.218;3.452;2023-04-25T11:15:20;6.83;;;1.70;;
20870;SDS011;10595;51.218;3.452;2023-04-25T11:17:47;6.70;;;1.27;;
20870;SDS011;10595;51.218;3.452;2023-04-25T11:20:13;14.07;;;1.30;;
20870;SDS011;10595;51.218;3.452;2023-04-25T11:22:40;3.70;;;1.30;;
20870;SDS011;10595;51.218;3.452;2023-04-25T11:25:07;5.87;;;1.10;;
20870;SDS011;10595;51.218;3.452;2023-04-25T11:27:34;3.93;;;1.23;;
20870;SDS011;10595;51.218;3.452;2023-04-25T11:30:09;7.17;;;1.40;;
20870;SDS011;10595;51.218;3.452;2023-04-25T11:32:36;5.43;;;1.20;;
20870;SDS011;10595;51.218;3.452;2023-04-25T11:35:02;5.57;;;1.10;;
20870;SDS011;10595;51.218;3.452;2023-04-25T11:37:28;6.00;;;1.30;;
20870;SDS011;10595;51.218;3.452;2023-04-25T11:39:54;13.60;;;1.60;;
20870;SDS011;10595;51.218;3.452;2023-04-25T11:42:20;9.30;;;1.70;;
20870;SDS011;10595;51.218;3.452;2023-04-25T11:44:46;6.13;;;1.40;;
20870;SDS011;10595;51.218;3.452;2023-04-25T11:47:12;3.77;;;1.50;;
20870;SDS011;10595;51.218;3.452;2023-04-25T11:49:38;9.60;;;1.20;;
20870;SDS011;10595;51.218;3.452;2023-04-25T11:52:06;4.77;;;1.13;;
20870;SDS011;10595;51.218;3.452;2023-04-25T11:54:34;5.47;;;1.10;;
20870;SDS011;10595;51.218;3.452;2023-04-25T11:57:00;4.53;;;1.10;;
20870;SDS011;10595;51.218;3.452;2023-04-25T11:59:27;6.37;;;1.40;;
20870;SDS011;10595;51.218;3.452;2023-04-25T12:01:53;7.00;;;1.37;;
20870;SDS011;10595;51.218;3.452;2023-04-25T12:04:20;5.97;;;1.60;;
20870;SDS011;10595;51.218;3.452;2023-04-25T12:06:47;3.00;;;0.90;;
20870;SDS011;10595;51.218;3.452;2023-04-25T12:09:14;6.10;;;1.07;;
20870;SDS011;10595;51.218;3.452;2023-04-25T12:11:41;7.23;;;1.47;;
20870;SDS011;10595;51.218;3.452;2023-04-25T12:14:11;3.27;;;1.03;;
20870;SDS011;10595;51.218;3.452;2023-04-25T12:16:43;5.30;;;1.17;;
20870;SDS011;10595;51.218;3.452;2023-04-25T12:19:13;4.93;;;0.83;;
20870;SDS011;10595;51.218;3.452;2023-04-25T12:21:39;6.17;;;1.30;;
20870;SDS011;10595;51.218;3.452;2023-04-25T12:24:12;4.93;;;1.20;;
20870;SDS011;10595;51.218;3.452;2023-04-25T12:26:49;8.60;;;1.53;;
20870;SDS011;10595;51.218;3.452;2023-04-25T12:29:18;6.07;;;1.70;;
20870;SDS011;10595;51.218;3.452;2023-04-25T12:31:45;10.37;;;1.20;;
20870;SDS011;10595;51.218;3.452;2023-04-25T12:34:11;9.00;;;1.60;;
20870;SDS011;10595;51.218;3.452;2023-04-25T12:36:37;8.27;;;1.10;;
20870;SDS011;10595;51.218;3.452;2023-04-25T12:39:04;5.63;;;1.40;;
20870;SDS011;10595;51.218;3.452;2023-04-25T12:41:30;7.20;;;1.63;;
20870;SDS011;10595;51.218;3.452;2023-04-25T12:43:56;9.00;;;2.30;;
20870;SDS011;10595;51.218;3.452;2023-04-25T12:46:23;7.73;;;1.30;;
20870;SDS011;10595;51.218;3.452;2023-04-25T12:48:50;7.67;;;1.77;;
20870;SDS011;10595;51.218;3.452;2023-04-25T12:51:16;8.80;;;1.70;;
20870;SDS011;10595;51.218;3.452;2023-04-25T12:53:42;7.73;;;1.30;;
20870;SDS011;10595;51.218;3.452;2023-04-25T12:56:08;6.30;;;1.30;;
20870;SDS011;10595;51.218;3.452;2023-04-25T12:58:34;3.63;;;1.30;;
20870;SDS011;10595;51.218;3.452;2023-04-25T13:01:00;3.57;;;1.30;;
20870;SDS011;10595;51.218;3.452;2023-04-25T13:03:26;4.73;;;1.17;;
20870;SDS011;10595;51.218;3.452;2023-04-25T13:05:52;7.20;;;1.93;;
20870;SDS011;10595;51.218;3.452;2023-04-25T13:08:19;9.13;;;1.33;;
20870;SDS011;10595;51.218;3.452;2023-04-25T13:10:45;7.43;;;1.40;;
20870;SDS011;10595;51.218;3.452;2023-04-25T13:13:11;2.93;;;1.10;;
20870;SDS011;10595;51.218;3.452;2023-04-25T13:15:37;10.47;;;1.43;;
20870;SDS011;10595;51.218;3.452;2023-04-25T13:18:04;4.93;;;1.10;;
20870;SDS011;10595;51.218;3.452;2023-04-25T13:20:33;7.43;;;1.33;;
20870;SDS011;10595;51.218;3.452;2023-04-25T13:22:59;4.57;;;1.13;;
20870;SDS011;10595;51.218;3.452;2023-04-25T13:25:25;5.67;;;0.97;;
20870;SDS011;10595;51.218;3.452;2023-04-25T13:27:51;6.90;;;1.03;;
20870;SDS011;10595;51.218;3.452;2023-04-25T13:30:17;5.00;;;1.07;;
20870;SDS011;10595;51.218;3.452;2023-04-25T13:32:43;7.10;;;1.30;;
20870;SDS011;10595;51.218;3.452;2023-04-25T13:35:12;6.47;;;1.37;;
20870;SDS011;10595;51.218;3.452;2023-04-25T13:37:39;11.63;;;1.47;;
20870;SDS011;10595;51.218;3.452;2023-04-25T13:40:07;7.70;;;1.43;;
20870;SDS011;10595;51.218;3.452;2023-04-25T13:42:34;8.63;;;1.30;;
20870;SDS011;10595;51.218;3.452;2023-04-25T13:45:01;8.30;;;1.43;;
20870;SDS011;10595;51.218;3.452;2023-04-25T13:47:27;6.63;;;1.30;;
20870;SDS011;10595;51.218;3.452;2023-04-25T13:49:53;8.03;;;1.30;;
20870;SDS011;10595;51.218;3.452;2023-04-25T13:52:19;3.50;;;1.13;;
20870;SDS011;10595;51.218;3.452;2023-04-25T13:54:45;4.70;;;1.27;;
20870;SDS011;10595;51.218;3.452;2023-04-25T13:57:12;10.43;;;1.33;;
20870;SDS011;10595;51.218;3.452;2023-04-25T13:59:38;9.93;;;1.53;;
20870;SDS011;10595;51.218;3.452;2023-04-25T14:02:05;5.80;;;1.10;;
20870;SDS011;10595;51.218;3.452;2023-04-25T14:04:32;7.77;;;1.60;;
20870;SDS011;10595;51.218;3.452;2023-04-25T14:06:58;7.60;;;1.30;;
20870;SDS011;10595;51.218;3.452;2023-04-25T14:09:24;3.37;;;1.03;;
20870;SDS011;10595;51.218;3.452;2023-04-25T14:11:52;4.80;;;1.57;;
20870;SDS011;10595;51.218;3.452;2023-04-25T14:14:18;6.40;;;1.03;;
20870;SDS011;10595;51.218;3.452;2023-04-25T14:16:44;6.70;;;1.40;;
20870;SDS011;10595;51.218;3.452;2023-04-25T14:19:13;6.17;;;1.30;;
20870;SDS011;10595;51.218;3.452;2023-04-25T14:21:39;5.70;;;1.50;;
20870;SDS011;10595;51.218;3.452;2023-04-25T14:24:05;3.03;;;1.10;;
20870;SDS011;10595;51.218;3.452;2023-04-25T14:26:32;5.53;;;1.40;;
20870;SDS011;10595;51.218;3.452;2023-04-25T14:28:59;22.03;;;2.03;;
20870;SDS011;10595;51.218;3.452;2023-04-25T14:31:25;3.83;;;1.03;;
20870;SDS011;10595;51.218;3.452;2023-04-25T14:33:51;4.60;;;0.87;;
20870;SDS011;10595;51.218;3.452;2023-04-25T14:36:17;3.23;;;1.00;;
20870;SDS011;10595;51.218;3.452;2023-04-25T14:38:43;5.43;;;1.17;;
20870;SDS011;10595;51.218;3.452;2023-04-25T14:41:09;10.97;;;1.60;;